sensor_id;sensor_type;location;lat;lon;timestamp;P1;durP1;ratioP1;P2;durP2;ratioP2
18649;SDS011;9454;53.516;10.478;2023-04-24T00:00:48;3.33;;;1.83;;
18649;SDS011;9454;53.516;10.478;2023-04-24T00:03:52;2.45;;;1.90;;
18649;SDS011;9454;53.516;10.478;2023-04-24T00:06:57;3.10;;;2.00;;
18649;SDS011;9454;53.516;10.478;2023-04-24T00:10:03;2.38;;;1.63;;
18649;SDS011;9454;53.516;10.478;2023-04-24T00:13:06;2.00;;;1.77;;
18649;SDS011;9454;53.516;10.478;2023-04-24T00:16:10;2.47;;;1.73;;
18649;SDS011;9454;53.516;10.478;2023-04-24T00:19:14;3.85;;;1.92;;
18649;SDS011;9454;53.516;10.478;2023-04-24T00:22:19;3.80;;;2.17;;
18649;SDS011;9454;53.516;10.478;2023-04-24T00:25:28;2.40;;;1.90;;
18649;SDS011;9454;53.516;10.478;2023-04-24T00:28:31;4.35;;;2.10;;
18649;SDS011;9454;53.516;10.478;2023-04-24T00:31:37;3.60;;;1.85;;
18649;SDS011;9454;53.516;10.478;2023-04-24T00:34:41;2.50;;;1.98;;
18649;SDS011;9454;53.516;10.478;2023-04-24T00:37:45;2.67;;;1.85;;
18649;SDS011;9454;53.516;10.478;2023-04-24T00:40:50;3.40;;;2.40;;
18649;SDS011;9454;53.516;10.478;2023-04-24T00:43:55;2.28;;;1.70;;
18649;SDS011;9454;53.516;10.478;2023-04-24T00:46:59;2.30;;;1.80;;
18649;SDS011;9454;53.516;10.478;2023-04-24T00:50:03;2.90;;;1.70;;
18649;SDS011;9454;53.516;10.478;2023-04-24T00:53:08;2.08;;;1.67;;
18649;SDS011;9454;53.516;10.478;2023-04-24T00:56:13;2.30;;;1.63;;
18649;SDS011;9454;53.516;10.478;2023-04-24T00:59:18;2.72;;;1.90;;
18649;SDS011;9454;53.516;10.478;2023-04-24T01:02:23;3.30;;;2.17;;
18649;SDS011;9454;53.516;10.478;2023-04-24T01:05:26;3.00;;;2.08;;
18649;SDS011;9454;53.516;10.478;2023-04-24T01:08:31;6.55;;;2.05;;
18649;SDS011;9454;53.516;10.478;2023-04-24T01:11:38;3.28;;;1.85;;
18649;SDS011;9454;53.516;10.478;2023-04-24T01:14:45;3.28;;;1.48;;
18649;SDS011;9454;53.516;10.478;2023-04-24T01:17:49;2.53;;;1.85;;
18649;SDS011;9454;53.516;10.478;2023-04-24T01:20:58;3.33;;;2.10;;
18649;SDS011;9454;53.516;10.478;2023-04-24T01:24:06;2.92;;;1.63;;
18649;SDS011;9454;53.516;10.478;2023-04-24T01:27:12;2.45;;;1.60;;
18649;SDS011;9454;53.516;10.478;2023-04-24T01:30:15;3.80;;;1.52;;
18649;SDS011;9454;53.516;10.478;2023-04-24T01:33:20;2.85;;;1.83;;
18649;SDS011;9454;53.516;10.478;2023-04-24T01:36:24;2.10;;;1.83;;
18649;SDS011;9454;53.516;10.478;2023-04-24T01:39:30;3.63;;;2.13;;
18649;SDS011;9454;53.516;10.478;2023-04-24T01:42:34;3.58;;;1.73;;
18649;SDS011;9454;53.516;10.478;2023-04-24T01:45:44;5.03;;;1.67;;
18649;SDS011;9454;53.516;10.478;2023-04-24T01:48:47;2.53;;;1.95;;
18649;SDS011;9454;53.516;10.478;2023-04-24T01:51:54;2.55;;;1.90;;
18649;SDS011;9454;53.516;10.478;2023-04-24T01:55:00;1.45;;;1.35;;
18649;SDS011;9454;53.516;10.478;2023-04-24T01:58:05;2.75;;;1.50;;
18649;SDS011;9454;53.516;10.478;2023-04-24T02:01:08;1.92;;;1.30;;
18649;SDS011;9454;53.516;10.478;2023-04-24T02:04:12;1.45;;;1.35;;
18649;SDS011;9454;53.516;10.478;2023-04-24T02:07:17;2.10;;;1.30;;
18649;SDS011;9454;53.516;10.478;2023-04-24T02:10:23;1.73;;;1.20;;
18649;SDS011;9454;53.516;10.478;2023-04-24T02:13:34;1.50;;;1.35;;
18649;SDS011;9454;53.516;10.478;2023-04-24T02:16:37;1.63;;;1.08;;
18649;SDS011;9454;53.516;10.478;2023-04-24T02:19:42;1.50;;;1.30;;
18649;SDS011;9454;53.516;10.478;2023-04-24T02:22:46;1.63;;;1.40;;
18649;SDS011;9454;53.516;10.478;2023-04-24T02:25:55;2.58;;;1.30;;
18649;SDS011;9454;53.516;10.478;2023-04-24T02:28:59;1.23;;;0.90;;
18649;SDS011;9454;53.516;10.478;2023-04-24T02:32:04;3.20;;;1.10;;
18649;SDS011;9454;53.516;10.478;2023-04-24T02:35:08;1.02;;;0.95;;
18649;SDS011;9454;53.516;10.478;2023-04-24T02:38:12;1.00;;;0.90;;
18649;SDS011;9454;53.516;10.478;2023-04-24T02:41:19;1.40;;;0.93;;
18649;SDS011;9454;53.516;10.478;2023-04-24T02:44:25;1.20;;;0.95;;
18649;SDS011;9454;53.516;10.478;2023-04-24T02:47:29;3.90;;;1.00;;
18649;SDS011;9454;53.516;10.478;2023-04-24T02:50:33;0.60;;;0.60;;
18649;SDS011;9454;53.516;10.478;2023-04-24T02:53:38;1.17;;;0.90;;
18649;SDS011;9454;53.516;10.478;2023-04-24T02:56:43;1.98;;;1.00;;
18649;SDS011;9454;53.516;10.478;2023-04-24T02:59:47;1.10;;;0.85;;
18649;SDS011;9454;53.516;10.478;2023-04-24T03:02:50;1.20;;;0.82;;
18649;SDS011;9454;53.516;10.478;2023-04-24T03:05:55;3.90;;;1.05;;
18649;SDS011;9454;53.516;10.478;2023-04-24T03:08:59;1.05;;;0.95;;
18649;SDS011;9454;53.516;10.478;2023-04-24T03:12:05;1.45;;;0.80;;
18649;SDS011;9454;53.516;10.478;2023-04-24T03:15:09;0.98;;;0.68;;
18649;SDS011;9454;53.516;10.478;2023-04-24T03:18:12;1.50;;;0.60;;
18649;SDS011;9454;53.516;10.478;2023-04-24T03:21:17;0.80;;;0.80;;
18649;SDS011;9454;53.516;10.478;2023-04-24T03:24:21;0.80;;;0.80;;
18649;SDS011;9454;53.516;10.478;2023-04-24T03:27:28;1.30;;;0.73;;
18649;SDS011;9454;53.516;10.478;2023-04-24T03:30:39;1.25;;;1.13;;
18649;SDS011;9454;53.516;10.478;2023-04-24T03:33:47;0.88;;;0.80;;
18649;SDS011;9454;53.516;10.478;2023-04-24T03:36:51;2.08;;;0.80;;
18649;SDS011;9454;53.516;10.478;2023-04-24T03:39:59;3.05;;;0.68;;
18649;SDS011;9454;53.516;10.478;2023-04-24T03:43:06;1.13;;;0.80;;
18649;SDS011;9454;53.516;10.478;2023-04-24T03:46:12;2.90;;;0.70;;
18649;SDS011;9454;53.516;10.478;2023-04-24T03:49:22;0.80;;;0.80;;
18649;SDS011;9454;53.516;10.478;2023-04-24T03:52:27;0.98;;;0.70;;
18649;SDS011;9454;53.516;10.478;2023-04-24T03:55:31;1.25;;;0.90;;
18649;SDS011;9454;53.516;10.478;2023-04-24T03:58:37;1.00;;;0.70;;
18649;SDS011;9454;53.516;10.478;2023-04-24T04:01:41;1.02;;;0.70;;
18649;SDS011;9454;53.516;10.478;2023-04-24T04:04:48;0.77;;;0.77;;
18649;SDS011;9454;53.516;10.478;2023-04-24T04:07:52;1.10;;;0.80;;
18649;SDS011;9454;53.516;10.478;2023-04-24T04:10:58;0.70;;;0.70;;
18649;SDS011;9454;53.516;10.478;2023-04-24T04:14:07;1.00;;;0.70;;
18649;SDS011;9454;53.516;10.478;2023-04-24T04:17:14;2.92;;;0.80;;
18649;SDS011;9454;53.516;10.478;2023-04-24T04:20:18;0.77;;;0.77;;
18649;SDS011;9454;53.516;10.478;2023-04-24T04:23:21;1.30;;;0.80;;
18649;SDS011;9454;53.516;10.478;2023-04-24T04:26:41;1.73;;;0.90;;
18649;SDS011;9454;53.516;10.478;2023-04-24T04:29:59;3.53;;;0.73;;
18649;SDS011;9454;53.516;10.478;2023-04-24T04:33:16;1.15;;;0.70;;
18649;SDS011;9454;53.516;10.478;2023-04-24T04:36:20;0.80;;;0.77;;
18649;SDS011;9454;53.516;10.478;2023-04-24T04:39:33;0.70;;;0.70;;
18649;SDS011;9454;53.516;10.478;2023-04-24T04:42:42;1.70;;;0.90;;
18649;SDS011;9454;53.516;10.478;2023-04-24T04:45:49;2.17;;;0.98;;
18649;SDS011;9454;53.516;10.478;2023-04-24T04:49:18;3.13;;;0.82;;
18649;SDS011;9454;53.516;10.478;2023-04-24T04:52:24;2.72;;;0.60;;
18649;SDS011;9454;53.516;10.478;2023-04-24T04:55:40;3.15;;;0.65;;
18649;SDS011;9454;53.516;10.478;2023-04-24T04:58:53;0.90;;;0.57;;
18649;SDS011;9454;53.516;10.478;2023-04-24T05:01:58;0.93;;;0.68;;
18649;SDS011;9454;53.516;10.478;2023-04-24T05:05:01;1.38;;;0.50;;
18649;SDS011;9454;53.516;10.478;2023-04-24T05:08:07;0.50;;;0.50;;
18649;SDS011;9454;53.516;10.478;2023-04-24T05:11:27;0.68;;;0.55;;
18649;SDS011;9454;53.516;10.478;2023-04-24T05:14:32;0.50;;;0.50;;
18649;SDS011;9454;53.516;10.478;2023-04-24T05:17:38;0.70;;;0.70;;
18649;SDS011;9454;53.516;10.478;2023-04-24T05:20:44;0.50;;;0.50;;
18649;SDS011;9454;53.516;10.478;2023-04-24T05:23:48;1.05;;;0.60;;
18649;SDS011;9454;53.516;10.478;2023-04-24T05:27:04;1.13;;;0.70;;
18649;SDS011;9454;53.516;10.478;2023-04-24T05:30:13;1.23;;;0.73;;
18649;SDS011;9454;53.516;10.478;2023-04-24T05:33:18;0.50;;;0.50;;
18649;SDS011;9454;53.516;10.478;2023-04-24T05:36:23;0.70;;;0.60;;
18649;SDS011;9454;53.516;10.478;2023-04-24T05:39:28;0.60;;;0.60;;
18649;SDS011;9454;53.516;10.478;2023-04-24T05:42:34;0.40;;;0.40;;
18649;SDS011;9454;53.516;10.478;2023-04-24T05:45:38;1.13;;;0.52;;
18649;SDS011;9454;53.516;10.478;2023-04-24T05:48:42;0.40;;;0.40;;
18649;SDS011;9454;53.516;10.478;2023-04-24T05:51:46;0.43;;;0.43;;
18649;SDS011;9454;53.516;10.478;2023-04-24T05:54:52;0.55;;;0.43;;
18649;SDS011;9454;53.516;10.478;2023-04-24T05:57:58;0.93;;;0.60;;
18649;SDS011;9454;53.516;10.478;2023-04-24T06:01:04;0.40;;;0.40;;
18649;SDS011;9454;53.516;10.478;2023-04-24T06:04:10;0.60;;;0.50;;
18649;SDS011;9454;53.516;10.478;2023-04-24T06:07:16;0.50;;;0.50;;
18649;SDS011;9454;53.516;10.478;2023-04-24T06:10:20;0.63;;;0.52;;
18649;SDS011;9454;53.516;10.478;2023-04-24T06:13:25;0.60;;;0.57;;
18649;SDS011;9454;53.516;10.478;2023-04-24T06:16:48;0.90;;;0.70;;
18649;SDS011;9454;53.516;10.478;2023-04-24T06:20:06;0.82;;;0.63;;
18649;SDS011;9454;53.516;10.478;2023-04-24T06:23:10;0.55;;;0.50;;
18649;SDS011;9454;53.516;10.478;2023-04-24T06:26:14;0.60;;;0.60;;
18649;SDS011;9454;53.516;10.478;2023-04-24T06:29:18;1.67;;;0.80;;
18649;SDS011;9454;53.516;10.478;2023-04-24T06:32:28;1.05;;;0.57;;
18649;SDS011;9454;53.516;10.478;2023-04-24T06:35:35;0.85;;;0.65;;
18649;SDS011;9454;53.516;10.478;2023-04-24T06:38:40;0.70;;;0.60;;
18649;SDS011;9454;53.516;10.478;2023-04-24T06:41:44;3.60;;;0.65;;
18649;SDS011;9454;53.516;10.478;2023-04-24T06:44:53;1.33;;;0.80;;
18649;SDS011;9454;53.516;10.478;2023-04-24T06:47:58;1.00;;;0.80;;
18649;SDS011;9454;53.516;10.478;2023-04-24T06:51:03;2.00;;;0.75;;
18649;SDS011;9454;53.516;10.478;2023-04-24T06:54:08;0.75;;;0.60;;
18649;SDS011;9454;53.516;10.478;2023-04-24T06:57:12;0.80;;;0.80;;
18649;SDS011;9454;53.516;10.478;2023-04-24T07:00:18;1.02;;;0.68;;
18649;SDS011;9454;53.516;10.478;2023-04-24T07:03:22;0.55;;;0.50;;
18649;SDS011;9454;53.516;10.478;2023-04-24T07:06:29;1.35;;;0.80;;
18649;SDS011;9454;53.516;10.478;2023-04-24T07:09:34;2.30;;;0.77;;
18649;SDS011;9454;53.516;10.478;2023-04-24T07:12:40;1.70;;;0.90;;
18649;SDS011;9454;53.516;10.478;2023-04-24T07:15:43;0.90;;;0.90;;
18649;SDS011;9454;53.516;10.478;2023-04-24T07:18:47;1.05;;;0.80;;
18649;SDS011;9454;53.516;10.478;2023-04-24T07:21:53;1.35;;;0.60;;
18649;SDS011;9454;53.516;10.478;2023-04-24T07:24:57;3.90;;;0.70;;
18649;SDS011;9454;53.516;10.478;2023-04-24T07:28:00;2.75;;;0.93;;
18649;SDS011;9454;53.516;10.478;2023-04-24T07:31:07;1.88;;;0.80;;
18649;SDS011;9454;53.516;10.478;2023-04-24T07:34:11;1.00;;;0.90;;
18649;SDS011;9454;53.516;10.478;2023-04-24T07:37:17;0.75;;;0.75;;
18649;SDS011;9454;53.516;10.478;2023-04-24T07:40:21;0.80;;;0.80;;
18649;SDS011;9454;53.516;10.478;2023-04-24T07:43:25;2.00;;;0.82;;
18649;SDS011;9454;53.516;10.478;2023-04-24T07:46:29;5.05;;;0.70;;
18649;SDS011;9454;53.516;10.478;2023-04-24T07:49:34;1.25;;;0.88;;
18649;SDS011;9454;53.516;10.478;2023-04-24T07:52:40;1.83;;;0.63;;
18649;SDS011;9454;53.516;10.478;2023-04-24T07:55:46;1.27;;;0.80;;
18649;SDS011;9454;53.516;10.478;2023-04-24T07:58:51;1.42;;;0.80;;
18649;SDS011;9454;53.516;10.478;2023-04-24T08:01:57;0.70;;;0.70;;
18649;SDS011;9454;53.516;10.478;2023-04-24T08:05:02;0.93;;;0.60;;
18649;SDS011;9454;53.516;10.478;2023-04-24T08:08:08;2.03;;;0.68;;
18649;SDS011;9454;53.516;10.478;2023-04-24T08:11:13;3.83;;;0.77;;
18649;SDS011;9454;53.516;10.478;2023-04-24T08:14:17;0.40;;;0.40;;
18649;SDS011;9454;53.516;10.478;2023-04-24T08:17:23;1.30;;;0.45;;
18649;SDS011;9454;53.516;10.478;2023-04-24T08:20:28;0.90;;;0.60;;
18649;SDS011;9454;53.516;10.478;2023-04-24T08:23:33;1.67;;;0.50;;
18649;SDS011;9454;53.516;10.478;2023-04-24T08:26:37;0.60;;;0.60;;
18649;SDS011;9454;53.516;10.478;2023-04-24T08:29:41;0.68;;;0.55;;
18649;SDS011;9454;53.516;10.478;2023-04-24T08:32:46;0.70;;;0.60;;
18649;SDS011;9454;53.516;10.478;2023-04-24T08:35:50;2.20;;;0.80;;
18649;SDS011;9454;53.516;10.478;2023-04-24T08:38:55;0.60;;;0.60;;
18649;SDS011;9454;53.516;10.478;2023-04-24T08:41:59;3.35;;;0.60;;
18649;SDS011;9454;53.516;10.478;2023-04-24T08:45:11;1.73;;;0.57;;
18649;SDS011;9454;53.516;10.478;2023-04-24T08:48:15;1.15;;;0.82;;
18649;SDS011;9454;53.516;10.478;2023-04-24T08:51:31;0.68;;;0.50;;
18649;SDS011;9454;53.516;10.478;2023-04-24T08:54:35;1.38;;;0.90;;
18649;SDS011;9454;53.516;10.478;2023-04-24T08:57:41;0.90;;;0.70;;
18649;SDS011;9454;53.516;10.478;2023-04-24T09:00:46;1.65;;;0.80;;
18649;SDS011;9454;53.516;10.478;2023-04-24T09:03:50;0.95;;;0.88;;
18649;SDS011;9454;53.516;10.478;2023-04-24T09:06:57;2.13;;;1.05;;
18649;SDS011;9454;53.516;10.478;2023-04-24T09:10:02;1.42;;;1.08;;
18649;SDS011;9454;53.516;10.478;2023-04-24T09:13:06;1.10;;;0.93;;
18649;SDS011;9454;53.516;10.478;2023-04-24T09:16:10;2.33;;;1.50;;
18649;SDS011;9454;53.516;10.478;2023-04-24T09:19:16;2.00;;;1.20;;
18649;SDS011;9454;53.516;10.478;2023-04-24T09:22:22;1.88;;;1.30;;
18649;SDS011;9454;53.516;10.478;2023-04-24T09:25:32;2.75;;;1.50;;
18649;SDS011;9454;53.516;10.478;2023-04-24T09:28:37;1.70;;;1.13;;
18649;SDS011;9454;53.516;10.478;2023-04-24T09:31:42;1.92;;;1.20;;
18649;SDS011;9454;53.516;10.478;2023-04-24T09:34:45;3.10;;;1.40;;
18649;SDS011;9454;53.516;10.478;2023-04-24T09:37:52;3.67;;;1.20;;
18649;SDS011;9454;53.516;10.478;2023-04-24T09:41:00;2.72;;;1.55;;
18649;SDS011;9454;53.516;10.478;2023-04-24T09:44:11;4.10;;;1.60;;
18649;SDS011;9454;53.516;10.478;2023-04-24T09:47:18;2.97;;;2.00;;
18649;SDS011;9454;53.516;10.478;2023-04-24T09:50:24;5.25;;;1.98;;
18649;SDS011;9454;53.516;10.478;2023-04-24T09:53:27;3.53;;;1.40;;
18649;SDS011;9454;53.516;10.478;2023-04-24T09:56:33;2.20;;;1.67;;
18649;SDS011;9454;53.516;10.478;2023-04-24T09:59:42;3.63;;;1.85;;
18649;SDS011;9454;53.516;10.478;2023-04-24T10:02:49;2.05;;;1.70;;
18649;SDS011;9454;53.516;10.478;2023-04-24T10:05:54;2.40;;;1.73;;
18649;SDS011;9454;53.516;10.478;2023-04-24T10:09:01;2.55;;;1.77;;
18649;SDS011;9454;53.516;10.478;2023-04-24T10:12:07;4.38;;;2.03;;
18649;SDS011;9454;53.516;10.478;2023-04-24T10:15:12;3.67;;;1.42;;
18649;SDS011;9454;53.516;10.478;2023-04-24T10:18:17;2.42;;;1.85;;
18649;SDS011;9454;53.516;10.478;2023-04-24T10:21:23;3.00;;;1.95;;
18649;SDS011;9454;53.516;10.478;2023-04-24T10:24:27;4.65;;;2.10;;
18649;SDS011;9454;53.516;10.478;2023-04-24T10:27:33;3.53;;;1.33;;
18649;SDS011;9454;53.516;10.478;2023-04-24T10:30:39;1.30;;;1.20;;
18649;SDS011;9454;53.516;10.478;2023-04-24T10:33:46;1.58;;;1.30;;
18649;SDS011;9454;53.516;10.478;2023-04-24T10:36:50;2.15;;;1.58;;
18649;SDS011;9454;53.516;10.478;2023-04-24T10:39:58;4.80;;;2.00;;
18649;SDS011;9454;53.516;10.478;2023-04-24T10:43:03;3.42;;;2.20;;
18649;SDS011;9454;53.516;10.478;2023-04-24T10:46:08;2.88;;;2.05;;
18649;SDS011;9454;53.516;10.478;2023-04-24T10:49:12;8.52;;;2.05;;
18649;SDS011;9454;53.516;10.478;2023-04-24T10:52:17;3.00;;;2.10;;
18649;SDS011;9454;53.516;10.478;2023-04-24T10:58:50;4.28;;;2.28;;
18649;SDS011;9454;53.516;10.478;2023-04-24T11:01:57;3.08;;;2.33;;
18649;SDS011;9454;53.516;10.478;2023-04-24T11:05:03;3.38;;;2.15;;
18649;SDS011;9454;53.516;10.478;2023-04-24T11:08:09;3.95;;;2.38;;
18649;SDS011;9454;53.516;10.478;2023-04-24T11:11:16;4.25;;;2.50;;
18649;SDS011;9454;53.516;10.478;2023-04-24T11:14:29;5.40;;;2.75;;
18649;SDS011;9454;53.516;10.478;2023-04-24T11:17:36;4.93;;;2.95;;
18649;SDS011;9454;53.516;10.478;2023-04-24T11:27:19;5.90;;;2.67;;
18649;SDS011;9454;53.516;10.478;2023-04-24T11:30:24;3.75;;;2.97;;
18649;SDS011;9454;53.516;10.478;2023-04-24T11:33:32;4.07;;;3.10;;
18649;SDS011;9454;53.516;10.478;2023-04-24T11:36:36;5.97;;;2.80;;
18649;SDS011;9454;53.516;10.478;2023-04-24T11:39:40;3.50;;;2.58;;
18649;SDS011;9454;53.516;10.478;2023-04-24T11:42:46;5.60;;;2.90;;
18649;SDS011;9454;53.516;10.478;2023-04-24T11:45:59;5.95;;;2.90;;
18649;SDS011;9454;53.516;10.478;2023-04-24T11:49:02;5.45;;;2.60;;
18649;SDS011;9454;53.516;10.478;2023-04-24T11:52:06;2.92;;;2.42;;
18649;SDS011;9454;53.516;10.478;2023-04-24T11:55:22;5.07;;;2.42;;
18649;SDS011;9454;53.516;10.478;2023-04-24T11:58:27;3.88;;;2.40;;
18649;SDS011;9454;53.516;10.478;2023-04-24T12:01:44;4.22;;;2.22;;
18649;SDS011;9454;53.516;10.478;2023-04-24T12:04:51;2.42;;;1.98;;
18649;SDS011;9454;53.516;10.478;2023-04-24T12:07:57;3.13;;;1.92;;
18649;SDS011;9454;53.516;10.478;2023-04-24T12:11:00;6.82;;;2.22;;
18649;SDS011;9454;53.516;10.478;2023-04-24T12:14:09;2.88;;;1.77;;
18649;SDS011;9454;53.516;10.478;2023-04-24T12:17:15;2.47;;;1.75;;
18649;SDS011;9454;53.516;10.478;2023-04-24T12:20:23;6.85;;;2.17;;
18649;SDS011;9454;53.516;10.478;2023-04-24T12:23:33;5.80;;;2.20;;
18649;SDS011;9454;53.516;10.478;2023-04-24T12:26:38;5.07;;;2.20;;
18649;SDS011;9454;53.516;10.478;2023-04-24T12:29:55;2.75;;;1.98;;
18649;SDS011;9454;53.516;10.478;2023-04-24T12:33:01;3.78;;;1.92;;
18649;SDS011;9454;53.516;10.478;2023-04-24T12:36:05;3.58;;;1.80;;
18649;SDS011;9454;53.516;10.478;2023-04-24T12:39:14;4.47;;;1.95;;
18649;SDS011;9454;53.516;10.478;2023-04-24T12:42:25;5.70;;;1.95;;
18649;SDS011;9454;53.516;10.478;2023-04-24T12:45:31;2.97;;;2.10;;
18649;SDS011;9454;53.516;10.478;2023-04-24T12:48:36;2.63;;;1.80;;
18649;SDS011;9454;53.516;10.478;2023-04-24T12:51:41;2.50;;;1.65;;
18649;SDS011;9454;53.516;10.478;2023-04-24T12:54:45;3.55;;;1.70;;
18649;SDS011;9454;53.516;10.478;2023-04-24T12:57:48;1.92;;;1.65;;
18649;SDS011;9454;53.516;10.478;2023-04-24T13:00:53;4.30;;;1.73;;
18649;SDS011;9454;53.516;10.478;2023-04-24T13:03:59;2.78;;;1.70;;
18649;SDS011;9454;53.516;10.478;2023-04-24T13:07:06;2.95;;;2.08;;
18649;SDS011;9454;53.516;10.478;2023-04-24T13:10:10;2.38;;;1.60;;
18649;SDS011;9454;53.516;10.478;2023-04-24T13:13:14;2.13;;;1.65;;
18649;SDS011;9454;53.516;10.478;2023-04-24T13:16:18;3.33;;;1.60;;
18649;SDS011;9454;53.516;10.478;2023-04-24T13:19:25;2.50;;;1.63;;
18649;SDS011;9454;53.516;10.478;2023-04-24T13:22:28;2.33;;;1.30;;
18649;SDS011;9454;53.516;10.478;2023-04-24T13:25:38;5.28;;;1.63;;
18649;SDS011;9454;53.516;10.478;2023-04-24T13:28:43;1.85;;;1.27;;
18649;SDS011;9454;53.516;10.478;2023-04-24T13:31:49;7.80;;;1.30;;
18649;SDS011;9454;53.516;10.478;2023-04-24T13:34:54;4.82;;;1.42;;
18649;SDS011;9454;53.516;10.478;2023-04-24T13:37:58;2.63;;;1.52;;
18649;SDS011;9454;53.516;10.478;2023-04-24T13:41:05;1.58;;;1.10;;
18649;SDS011;9454;53.516;10.478;2023-04-24T13:44:08;1.75;;;1.27;;
18649;SDS011;9454;53.516;10.478;2023-04-24T13:47:12;1.30;;;0.73;;
18649;SDS011;9454;53.516;10.478;2023-04-24T13:50:17;0.95;;;0.90;;
18649;SDS011;9454;53.516;10.478;2023-04-24T13:53:20;0.95;;;0.90;;
18649;SDS011;9454;53.516;10.478;2023-04-24T13:56:24;0.77;;;0.77;;
18649;SDS011;9454;53.516;10.478;2023-04-24T13:59:27;0.88;;;0.88;;
18649;SDS011;9454;53.516;10.478;2023-04-24T14:02:38;0.93;;;0.80;;
18649;SDS011;9454;53.516;10.478;2023-04-24T14:05:43;2.30;;;1.08;;
18649;SDS011;9454;53.516;10.478;2023-04-24T14:08:48;0.73;;;0.73;;
18649;SDS011;9454;53.516;10.478;2023-04-24T14:11:52;1.65;;;0.98;;
18649;SDS011;9454;53.516;10.478;2023-04-24T14:14:56;1.08;;;0.95;;
18649;SDS011;9454;53.516;10.478;2023-04-24T14:18:00;1.15;;;0.98;;
18649;SDS011;9454;53.516;10.478;2023-04-24T14:21:08;1.17;;;1.08;;
18649;SDS011;9454;53.516;10.478;2023-04-24T14:24:12;1.23;;;1.13;;
18649;SDS011;9454;53.516;10.478;2023-04-24T14:27:16;2.00;;;1.35;;
18649;SDS011;9454;53.516;10.478;2023-04-24T14:30:20;1.13;;;1.02;;
18649;SDS011;9454;53.516;10.478;2023-04-24T14:33:24;1.90;;;1.20;;
18649;SDS011;9454;53.516;10.478;2023-04-24T14:36:30;1.23;;;0.95;;
18649;SDS011;9454;53.516;10.478;2023-04-24T14:39:34;1.80;;;1.15;;
18649;SDS011;9454;53.516;10.478;2023-04-24T14:42:37;1.65;;;1.20;;
18649;SDS011;9454;53.516;10.478;2023-04-24T14:45:42;1.35;;;1.10;;
18649;SDS011;9454;53.516;10.478;2023-04-24T14:48:45;1.02;;;0.93;;
18649;SDS011;9454;53.516;10.478;2023-04-24T14:51:52;1.15;;;0.90;;
18649;SDS011;9454;53.516;10.478;2023-04-24T14:54:59;2.00;;;1.00;;
18649;SDS011;9454;53.516;10.478;2023-04-24T14:58:03;1.70;;;1.30;;
18649;SDS011;9454;53.516;10.478;2023-04-24T15:01:07;1.17;;;1.00;;
18649;SDS011;9454;53.516;10.478;2023-04-24T15:04:10;1.58;;;1.00;;
18649;SDS011;9454;53.516;10.478;2023-04-24T15:07:19;1.83;;;1.20;;
18649;SDS011;9454;53.516;10.478;2023-04-24T15:10:22;1.77;;;1.05;;
18649;SDS011;9454;53.516;10.478;2023-04-24T15:13:26;1.40;;;1.08;;
18649;SDS011;9454;53.516;10.478;2023-04-24T15:16:31;1.60;;;0.90;;
18649;SDS011;9454;53.516;10.478;2023-04-24T15:19:36;1.25;;;0.93;;
18649;SDS011;9454;53.516;10.478;2023-04-24T15:22:41;1.10;;;1.00;;
18649;SDS011;9454;53.516;10.478;2023-04-24T15:25:48;1.73;;;0.93;;
18649;SDS011;9454;53.516;10.478;2023-04-24T15:28:53;1.45;;;0.70;;
18649;SDS011;9454;53.516;10.478;2023-04-24T15:31:59;1.77;;;0.90;;
18649;SDS011;9454;53.516;10.478;2023-04-24T15:35:07;1.38;;;1.10;;
18649;SDS011;9454;53.516;10.478;2023-04-24T15:38:12;0.93;;;0.80;;
18649;SDS011;9454;53.516;10.478;2023-04-24T15:41:16;0.63;;;0.55;;
18649;SDS011;9454;53.516;10.478;2023-04-24T15:44:21;1.05;;;0.63;;
18649;SDS011;9454;53.516;10.478;2023-04-24T15:47:25;1.05;;;0.60;;
18649;SDS011;9454;53.516;10.478;2023-04-24T15:50:28;0.50;;;0.50;;
18649;SDS011;9454;53.516;10.478;2023-04-24T15:53:37;0.60;;;0.60;;
18649;SDS011;9454;53.516;10.478;2023-04-24T15:56:41;1.33;;;0.70;;
18649;SDS011;9454;53.516;10.478;2023-04-24T15:59:46;2.85;;;0.95;;
18649;SDS011;9454;53.516;10.478;2023-04-24T16:02:50;1.10;;;0.80;;
18649;SDS011;9454;53.516;10.478;2023-04-24T16:05:54;0.98;;;0.90;;
18649;SDS011;9454;53.516;10.478;2023-04-24T16:09:01;1.15;;;1.00;;
18649;SDS011;9454;53.516;10.478;2023-04-24T16:12:04;1.65;;;1.10;;
18649;SDS011;9454;53.516;10.478;2023-04-24T16:15:09;1.25;;;1.00;;
18649;SDS011;9454;53.516;10.478;2023-04-24T16:18:13;1.60;;;1.05;;
18649;SDS011;9454;53.516;10.478;2023-04-24T16:21:18;1.98;;;0.90;;
18649;SDS011;9454;53.516;10.478;2023-04-24T16:24:23;2.03;;;0.70;;
18649;SDS011;9454;53.516;10.478;2023-04-24T16:27:27;1.77;;;0.90;;
18649;SDS011;9454;53.516;10.478;2023-04-24T16:30:31;2.05;;;0.90;;
18649;SDS011;9454;53.516;10.478;2023-04-24T16:33:34;1.02;;;0.80;;
18649;SDS011;9454;53.516;10.478;2023-04-24T16:36:38;1.85;;;1.13;;
18649;SDS011;9454;53.516;10.478;2023-04-24T16:39:44;1.15;;;1.00;;
18649;SDS011;9454;53.516;10.478;2023-04-24T16:42:47;1.23;;;1.05;;
18649;SDS011;9454;53.516;10.478;2023-04-24T16:45:53;2.53;;;1.20;;
18649;SDS011;9454;53.516;10.478;2023-04-24T16:48:57;1.90;;;0.90;;
18649;SDS011;9454;53.516;10.478;2023-04-24T16:52:03;1.80;;;1.35;;
18649;SDS011;9454;53.516;10.478;2023-04-24T16:55:09;2.30;;;0.93;;
18649;SDS011;9454;53.516;10.478;2023-04-24T16:58:16;2.95;;;1.17;;
18649;SDS011;9454;53.516;10.478;2023-04-24T17:01:20;1.70;;;1.20;;
18649;SDS011;9454;53.516;10.478;2023-04-24T17:04:24;2.85;;;1.38;;
18649;SDS011;9454;53.516;10.478;2023-04-24T17:07:27;2.78;;;1.25;;
18649;SDS011;9454;53.516;10.478;2023-04-24T17:10:33;2.03;;;0.95;;
18649;SDS011;9454;53.516;10.478;2023-04-24T17:13:37;1.63;;;1.17;;
18649;SDS011;9454;53.516;10.478;2023-04-24T17:16:42;1.10;;;1.00;;
18649;SDS011;9454;53.516;10.478;2023-04-24T17:19:46;1.88;;;1.23;;
18649;SDS011;9454;53.516;10.478;2023-04-24T17:22:51;3.65;;;1.38;;
18649;SDS011;9454;53.516;10.478;2023-04-24T17:25:56;3.10;;;1.00;;
18649;SDS011;9454;53.516;10.478;2023-04-24T17:29:00;1.08;;;0.98;;
18649;SDS011;9454;53.516;10.478;2023-04-24T17:32:03;2.40;;;1.10;;
18649;SDS011;9454;53.516;10.478;2023-04-24T17:35:07;0.93;;;0.88;;
18649;SDS011;9454;53.516;10.478;2023-04-24T17:38:11;1.73;;;0.95;;
18649;SDS011;9454;53.516;10.478;2023-04-24T17:41:18;2.33;;;1.10;;
18649;SDS011;9454;53.516;10.478;2023-04-24T17:44:22;1.13;;;1.00;;
18649;SDS011;9454;53.516;10.478;2023-04-24T17:47:26;1.20;;;1.00;;
18649;SDS011;9454;53.516;10.478;2023-04-24T17:50:31;1.63;;;1.30;;
18649;SDS011;9454;53.516;10.478;2023-04-24T17:53:36;2.92;;;1.48;;
18649;SDS011;9454;53.516;10.478;2023-04-24T17:56:41;4.22;;;1.40;;
18649;SDS011;9454;53.516;10.478;2023-04-24T17:59:45;1.10;;;1.00;;
18649;SDS011;9454;53.516;10.478;2023-04-24T18:02:49;2.05;;;1.20;;
18649;SDS011;9454;53.516;10.478;2023-04-24T18:05:58;3.10;;;1.27;;
18649;SDS011;9454;53.516;10.478;2023-04-24T18:09:03;2.45;;;1.40;;
18649;SDS011;9454;53.516;10.478;2023-04-24T18:12:08;2.88;;;1.48;;
18649;SDS011;9454;53.516;10.478;2023-04-24T18:15:12;2.42;;;1.35;;
18649;SDS011;9454;53.516;10.478;2023-04-24T18:18:20;2.83;;;1.40;;
18649;SDS011;9454;53.516;10.478;2023-04-24T18:21:24;1.70;;;1.15;;
18649;SDS011;9454;53.516;10.478;2023-04-24T18:24:32;2.63;;;1.25;;
18649;SDS011;9454;53.516;10.478;2023-04-24T18:27:37;2.75;;;1.30;;
18649;SDS011;9454;53.516;10.478;2023-04-24T18:30:47;4.47;;;1.40;;
18649;SDS011;9454;53.516;10.478;2023-04-24T18:33:52;2.20;;;1.42;;
18649;SDS011;9454;53.516;10.478;2023-04-24T18:36:56;3.63;;;1.65;;
18649;SDS011;9454;53.516;10.478;2023-04-24T18:39:59;1.50;;;1.23;;
18649;SDS011;9454;53.516;10.478;2023-04-24T18:43:06;2.13;;;1.50;;
18649;SDS011;9454;53.516;10.478;2023-04-24T18:46:09;3.33;;;1.52;;
18649;SDS011;9454;53.516;10.478;2023-04-24T18:49:13;6.18;;;1.35;;